createdAt,value
2022-12-27T00:01:35.666Z,11.50
2022-12-27T00:04:03.031Z,11.10
2022-12-27T00:06:30.581Z,10.50
2022-12-27T00:08:58.513Z,10.10
2022-12-27T00:11:29.939Z,10.00
2022-12-27T00:13:56.945Z,10.50
2022-12-27T00:16:24.269Z,10.80
2022-12-27T00:18:52.573Z,10.40
2022-12-27T00:21:21.575Z,10.20
2022-12-27T00:23:51.066Z,10.30
2022-12-27T00:26:19.826Z,9.10
2022-12-27T00:28:47.300Z,9.70
2022-12-27T00:31:15.740Z,9.50
2022-12-27T00:33:44.597Z,10.20
2022-12-27T00:36:15.704Z,9.40
2022-12-27T00:38:42.998Z,9.00
2022-12-27T00:41:10.192Z,9.80
2022-12-27T00:43:37.455Z,9.20
2022-12-27T00:46:05.141Z,9.10
2022-12-27T00:48:32.517Z,10.30
2022-12-27T00:51:03.222Z,9.80
2022-12-27T00:53:31.723Z,9.90
2022-12-27T00:55:59.228Z,9.90
2022-12-27T00:58:27.246Z,9.10
2022-12-27T01:00:54.644Z,9.40
2022-12-27T01:03:22.291Z,9.20
2022-12-27T01:05:49.606Z,9.40
2022-12-27T01:08:16.506Z,9.70
2022-12-27T01:10:44.137Z,8.60
2022-12-27T01:13:11.918Z,8.70
2022-12-27T01:15:42.021Z,8.60
2022-12-27T01:18:09.265Z,8.20
2022-12-27T01:20:38.469Z,7.90
2022-12-27T01:23:05.501Z,8.40
2022-12-27T01:25:32.407Z,8.30
2022-12-27T01:27:59.368Z,7.20
2022-12-27T01:30:26.407Z,8.00
2022-12-27T01:32:53.315Z,8.10
2022-12-27T01:35:20.519Z,8.20
2022-12-27T01:37:47.583Z,7.90
2022-12-27T01:40:14.978Z,8.40
2022-12-27T01:42:55.852Z,7.80
2022-12-27T01:45:24.981Z,8.20
2022-12-27T01:48:01.237Z,8.00
2022-12-27T01:50:33.683Z,7.90
2022-12-27T01:53:08.083Z,6.80
2022-12-27T01:55:42.002Z,6.60
2022-12-27T01:58:12.831Z,6.30
2022-12-27T02:00:44.082Z,6.60
2022-12-27T02:03:12.176Z,6.00
2022-12-27T02:05:41.958Z,6.20
2022-12-27T02:08:25.141Z,6.20
2022-12-27T02:10:53.701Z,6.70
2022-12-27T02:13:21.731Z,6.30
2022-12-27T02:15:48.729Z,6.70
2022-12-27T02:18:16.002Z,7.30
2022-12-27T02:21:03.056Z,6.40
2022-12-27T02:24:04.793Z,6.00
2022-12-27T02:26:42.478Z,6.00
2022-12-27T02:29:29.318Z,5.70
2022-12-27T02:32:05.153Z,5.40
2022-12-27T02:34:38.774Z,5.90
2022-12-27T02:37:09.568Z,6.30
2022-12-27T02:39:40.870Z,5.50
2022-12-27T02:42:27.522Z,5.90
2022-12-27T02:45:09.057Z,6.00
2022-12-27T02:47:54.537Z,5.80
2022-12-27T02:50:47.830Z,5.80
2022-12-27T02:53:19.616Z,5.80
2022-12-27T02:56:28.498Z,5.90
2022-12-27T02:59:10.813Z,6.20
2022-12-27T03:02:04.774Z,6.70
2022-12-27T03:04:47.964Z,5.90
2022-12-27T03:07:28.028Z,6.80
2022-12-27T03:10:33.250Z,6.50
2022-12-27T03:13:29.021Z,6.50
2022-12-27T03:16:11.617Z,7.30
2022-12-27T03:18:55.275Z,5.00
2022-12-27T03:21:45.774Z,3.20
2022-12-27T03:24:31.712Z,2.50
2022-12-27T03:27:01.431Z,2.70
2022-12-27T03:29:48.436Z,2.70
2022-12-27T03:32:37.100Z,2.10
2022-12-27T03:35:11.074Z,1.70
2022-12-27T03:37:59.380Z,1.40
2022-12-27T03:40:35.400Z,1.50
2022-12-27T03:43:12.904Z,1.50
2022-12-27T03:46:14.764Z,0.90
2022-12-27T03:48:55.021Z,1.40
2022-12-27T03:51:25.787Z,1.00
2022-12-27T03:53:57.834Z,0.80
2022-12-27T03:56:25.378Z,1.30
2022-12-27T03:58:53.613Z,1.20
2022-12-27T04:01:20.810Z,1.80
2022-12-27T04:03:48.015Z,1.20
2022-12-27T04:06:15.122Z,1.20
2022-12-27T04:08:59.989Z,1.20
2022-12-27T04:11:44.770Z,1.20
2022-12-27T04:14:29.705Z,1.50
2022-12-27T04:17:14.619Z,2.20
2022-12-27T04:19:59.472Z,1.10
2022-12-27T04:22:44.103Z,1.50
2022-12-27T04:25:29.576Z,1.50
2022-12-27T04:28:15.890Z,1.30
2022-12-27T04:31:00.710Z,1.20
2022-12-27T04:33:45.702Z,1.80
2022-12-27T04:36:13.189Z,1.50
2022-12-27T04:38:40.192Z,1.30
2022-12-27T04:41:24.920Z,1.40
2022-12-27T04:44:09.754Z,1.30
2022-12-27T04:47:05.715Z,1.40
2022-12-27T04:49:50.682Z,1.50
2022-12-27T04:52:40.816Z,1.20
2022-12-27T04:55:16.578Z,2.20
2022-12-27T04:57:43.519Z,1.80
2022-12-27T05:00:31.723Z,2.00
2022-12-27T05:02:59.738Z,1.60
2022-12-27T05:05:28.114Z,1.70
2022-12-27T05:08:13.586Z,1.80
2022-12-27T05:10:58.781Z,1.80
2022-12-27T05:13:43.838Z,1.70
2022-12-27T05:16:11.081Z,1.60
2022-12-27T05:18:38.091Z,1.60
2022-12-27T05:21:07.008Z,2.00
2022-12-27T05:23:52.285Z,2.40
2022-12-27T05:26:24.511Z,2.20
2022-12-27T05:28:52.643Z,2.40
2022-12-27T05:31:19.922Z,1.90
2022-12-27T05:33:47.674Z,2.20
2022-12-27T05:36:14.619Z,2.00
2022-12-27T05:38:41.738Z,1.90
2022-12-27T05:41:09.209Z,2.00
2022-12-27T05:43:37.490Z,1.70
2022-12-27T05:46:10.341Z,2.60
2022-12-27T05:48:38.550Z,2.90
2022-12-27T05:51:10.587Z,2.10
2022-12-27T05:53:37.766Z,2.10
2022-12-27T05:56:05.754Z,2.10
2022-12-27T05:58:33.133Z,2.50
2022-12-27T06:01:00.242Z,2.30
2022-12-27T06:03:28.180Z,2.10
2022-12-27T06:06:00.176Z,2.00
2022-12-27T06:08:27.375Z,2.20
2022-12-27T06:11:02.393Z,2.70
2022-12-27T06:13:29.402Z,2.60
2022-12-27T06:15:56.320Z,2.50
2022-12-27T06:18:23.459Z,3.00
2022-12-27T06:20:51.320Z,2.50
2022-12-27T06:23:18.204Z,2.40
2022-12-27T06:25:45.189Z,2.60
2022-12-27T06:28:12.826Z,2.50
2022-12-27T06:30:40.199Z,2.80
2022-12-27T06:33:07.174Z,2.50
2022-12-27T06:35:34.271Z,2.60
2022-12-27T06:38:01.207Z,3.20
2022-12-27T06:40:28.389Z,3.20
2022-12-27T06:42:55.514Z,3.60
2022-12-27T06:45:22.462Z,3.30
2022-12-27T06:47:49.532Z,3.50
2022-12-27T06:50:16.940Z,2.80
2022-12-27T06:52:43.882Z,2.90
2022-12-27T06:55:11.695Z,2.30
2022-12-27T06:57:38.838Z,3.10
2022-12-27T07:00:09.519Z,2.70
2022-12-27T07:02:36.591Z,3.20
2022-12-27T07:05:04.287Z,3.00
2022-12-27T07:07:31.320Z,3.50
2022-12-27T07:09:58.574Z,3.60
2022-12-27T07:12:26.031Z,4.00
2022-12-27T07:14:53.101Z,3.80
2022-12-27T07:17:20.329Z,4.20
2022-12-27T07:19:48.341Z,4.40
2022-12-27T07:22:15.248Z,3.30
2022-12-27T07:24:42.389Z,3.50
2022-12-27T07:27:10.806Z,3.30
2022-12-27T07:29:43.472Z,3.40
2022-12-27T07:32:12.501Z,3.30
2022-12-27T07:34:39.933Z,2.90
2022-12-27T07:37:07.058Z,3.00
2022-12-27T07:39:34.051Z,3.30
2022-12-27T07:42:06.397Z,2.80
2022-12-27T07:44:37.615Z,2.30
2022-12-27T07:47:05.224Z,2.80
2022-12-27T07:49:32.189Z,2.90
2022-12-27T07:51:59.367Z,3.40
2022-12-27T07:54:26.760Z,3.30
2022-12-27T07:56:54.045Z,3.30
2022-12-27T07:59:22.448Z,3.50
2022-12-27T08:02:04.222Z,3.60
2022-12-27T08:04:33.099Z,2.90
2022-12-27T08:07:05.695Z,3.70
2022-12-27T08:09:36.615Z,4.00
2022-12-27T08:12:05.351Z,3.60
2022-12-27T08:14:32.349Z,3.70
2022-12-27T08:17:05.005Z,3.40
2022-12-27T08:19:32.007Z,3.50
2022-12-27T08:21:58.961Z,3.40
2022-12-27T08:24:26.075Z,3.40
2022-12-27T08:26:53.071Z,3.80
2022-12-27T08:29:20.243Z,3.70
2022-12-27T08:31:47.269Z,3.20
2022-12-27T08:34:14.223Z,4.00
2022-12-27T08:36:57.200Z,3.30
2022-12-27T08:39:25.522Z,3.70
2022-12-27T08:41:53.235Z,3.50
2022-12-27T08:44:20.629Z,3.40
2022-12-27T08:46:48.284Z,3.80
2022-12-27T08:49:15.303Z,3.40
2022-12-27T08:51:42.292Z,3.00
2022-12-27T08:54:10.112Z,3.30
2022-12-27T08:56:37.327Z,4.20
2022-12-27T08:59:05.483Z,4.00
2022-12-27T09:01:32.928Z,3.80
2022-12-27T09:04:00.306Z,3.70
2022-12-27T09:06:28.066Z,3.60
2022-12-27T09:08:56.310Z,3.10
2022-12-27T09:11:25.455Z,3.80
2022-12-27T09:13:52.836Z,3.90
2022-12-27T09:16:21.850Z,3.50
2022-12-27T09:18:51.503Z,3.20
2022-12-27T09:21:20.596Z,3.50
2022-12-27T09:23:48.494Z,3.10
2022-12-27T09:26:18.044Z,3.60
2022-12-27T09:28:45.348Z,3.50
2022-12-27T09:31:14.255Z,3.30
2022-12-27T09:33:41.431Z,3.00
2022-12-27T09:36:11.209Z,3.80
2022-12-27T09:38:39.435Z,3.40
2022-12-27T09:41:19.324Z,3.40
2022-12-27T09:44:03.594Z,2.70
2022-12-27T09:46:41.044Z,4.00
2022-12-27T09:49:10.840Z,4.00
2022-12-27T09:51:48.438Z,4.80
2022-12-27T09:54:20.316Z,7.50
2022-12-27T09:57:18.473Z,3.70
2022-12-27T09:59:40.894Z,4.20
2022-12-27T10:02:22.094Z,4.10
2022-12-27T10:05:19.061Z,4.30
2022-12-27T10:07:48.891Z,4.50
2022-12-27T10:10:26.399Z,3.90
2022-12-27T10:13:10.303Z,3.40
2022-12-27T10:15:48.518Z,4.10
2022-12-27T10:18:28.879Z,3.50
2022-12-27T10:21:06.941Z,4.10
2022-12-27T10:23:37.231Z,3.40
2022-12-27T10:26:08.759Z,3.80
2022-12-27T10:28:42.817Z,4.30
2022-12-27T10:31:16.165Z,4.30
2022-12-27T10:33:45.746Z,4.40
2022-12-27T10:36:16.396Z,4.60
2022-12-27T10:38:43.478Z,4.70
2022-12-27T10:41:26.748Z,4.00
2022-12-27T10:43:55.891Z,4.20
2022-12-27T10:46:30.734Z,4.30
2022-12-27T10:51:49.293Z,4.60
2022-12-27T10:54:18.272Z,4.40
2022-12-27T10:56:45.788Z,4.40
2022-12-27T10:59:17.741Z,4.90
2022-12-27T11:01:46.113Z,4.40
2022-12-27T11:04:20.768Z,4.70
2022-12-27T11:06:51.713Z,4.20
2022-12-27T11:09:28.045Z,3.60
2022-12-27T11:12:12.973Z,3.60
2022-12-27T11:14:40.054Z,2.80
2022-12-27T11:17:11.875Z,3.00
2022-12-27T11:19:41.781Z,3.10
2022-12-27T11:22:10.338Z,3.60
2022-12-27T11:24:38.149Z,3.80
2022-12-27T11:27:06.101Z,4.30
2022-12-27T11:29:36.069Z,3.80
2022-12-27T11:32:08.961Z,3.70
2022-12-27T11:34:38.886Z,3.30
2022-12-27T11:37:13.321Z,2.80
2022-12-27T11:39:43.631Z,3.10
2022-12-27T11:42:17.366Z,3.20
2022-12-27T11:44:49.127Z,3.70
2022-12-27T11:47:25.266Z,3.80
2022-12-27T11:49:56.359Z,3.40
2022-12-27T11:52:43.788Z,3.80
2022-12-27T11:58:28.760Z,3.80
2022-12-27T12:01:07.741Z,3.80
2022-12-27T12:03:53.117Z,3.80
2022-12-27T12:06:34.481Z,3.80
2022-12-27T12:09:19.637Z,4.10
2022-12-27T12:12:09.948Z,3.90
2022-12-27T12:14:59.845Z,4.40
2022-12-27T12:17:42.825Z,4.10
2022-12-27T12:20:37.246Z,3.70
2022-12-27T12:23:12.192Z,4.10
2022-12-27T12:26:10.919Z,3.80
2022-12-27T12:29:23.963Z,3.80
2022-12-27T12:32:10.150Z,4.00
2022-12-27T12:35:05.897Z,4.00
2022-12-27T12:37:53.632Z,3.70
2022-12-27T12:40:45.111Z,3.90
2022-12-27T12:43:27.364Z,3.80
2022-12-27T12:46:04.517Z,4.00
2022-12-27T12:49:19.773Z,3.40
2022-12-27T12:52:01.114Z,3.70
2022-12-27T12:54:48.181Z,3.80
2022-12-27T12:57:29.296Z,4.30
2022-12-27T13:00:18.004Z,4.70
2022-12-27T13:03:15.675Z,4.30
2022-12-27T13:08:23.970Z,4.90
2022-12-27T13:11:17.180Z,4.50
2022-12-27T13:13:58.015Z,4.40
2022-12-27T13:16:36.468Z,5.10
2022-12-27T13:19:21.308Z,4.80
2022-12-27T13:22:03.086Z,5.00
2022-12-27T13:24:58.256Z,5.30
2022-12-27T13:27:35.459Z,5.30
2022-12-27T13:30:16.229Z,5.10
2022-12-27T13:32:59.732Z,5.40
2022-12-27T13:35:42.771Z,5.10
2022-12-27T13:38:26.091Z,5.30
2022-12-27T13:41:17.890Z,5.00
2022-12-27T13:44:15.933Z,5.60
2022-12-27T13:47:06.871Z,5.30
2022-12-27T13:49:55.957Z,5.60
2022-12-27T13:52:40.998Z,5.10
2022-12-27T13:55:37.768Z,5.90
2022-12-27T13:58:54.787Z,5.60
2022-12-27T14:02:02.054Z,5.80
2022-12-27T14:05:00.063Z,5.80
2022-12-27T14:07:45.366Z,5.50
2022-12-27T14:10:22.982Z,6.40
2022-12-27T14:12:58.682Z,6.70
2022-12-27T14:15:33.132Z,5.90
2022-12-27T14:18:18.793Z,7.30
2022-12-27T14:21:02.669Z,6.50
2022-12-27T14:23:43.071Z,6.40
2022-12-27T14:26:56.660Z,5.80
2022-12-27T14:29:57.159Z,5.70
2022-12-27T14:32:56.850Z,6.00
2022-12-27T14:35:57.792Z,5.60
2022-12-27T14:38:52.812Z,6.20
2022-12-27T14:42:04.834Z,5.40
2022-12-27T14:45:09.416Z,6.50
2022-12-27T14:48:02.398Z,6.20
2022-12-27T14:51:14.876Z,6.00
2022-12-27T14:54:38.325Z,6.00
2022-12-27T14:57:17.264Z,6.10
2022-12-27T14:59:55.758Z,5.90
2022-12-27T15:02:35.124Z,5.70
2022-12-27T15:05:31.808Z,6.50
2022-12-27T15:08:20.164Z,5.70
2022-12-27T15:10:58.574Z,5.50
2022-12-27T15:13:37.571Z,7.00
2022-12-27T15:16:15.689Z,5.70
2022-12-27T15:19:08.848Z,6.40
2022-12-27T15:21:56.425Z,6.30
2022-12-27T15:24:32.062Z,5.50
2022-12-27T15:27:06.024Z,6.20
2022-12-27T15:29:52.351Z,6.10
2022-12-27T15:32:31.471Z,6.50
2022-12-27T15:35:12.337Z,7.20
2022-12-27T15:38:01.352Z,7.00
2022-12-27T15:40:39.989Z,7.00
2022-12-27T15:43:19.092Z,6.70
2022-12-27T15:46:04.968Z,6.80
2022-12-27T15:48:59.744Z,7.50
2022-12-27T15:51:33.681Z,6.40
2022-12-27T15:54:19.189Z,6.10
2022-12-27T15:56:58.409Z,6.00
2022-12-27T15:59:46.900Z,6.30
2022-12-27T16:02:35.958Z,7.10
2022-12-27T16:05:35.905Z,6.10
2022-12-27T16:08:47.938Z,6.40
2022-12-27T16:11:16.716Z,6.50
2022-12-27T16:13:50.326Z,5.20
2022-12-27T16:16:57.162Z,6.00
2022-12-27T16:19:55.073Z,5.60
2022-12-27T16:22:35.347Z,5.40
2022-12-27T16:25:26.941Z,6.00
2022-12-27T16:28:01.266Z,5.70
2022-12-27T16:30:44.934Z,5.70
2022-12-27T16:33:29.241Z,5.20
2022-12-27T16:36:19.340Z,6.20
2022-12-27T16:38:54.951Z,5.80
2022-12-27T16:41:35.464Z,6.00
2022-12-27T16:44:16.608Z,6.10
2022-12-27T16:49:02.632Z,5.60
2022-12-27T16:51:39.592Z,5.40
2022-12-27T16:54:16.720Z,4.90
2022-12-27T16:56:48.295Z,4.90
2022-12-27T16:59:52.369Z,4.70
2022-12-27T17:02:39.595Z,5.60
2022-12-27T17:05:41.937Z,5.40
2022-12-27T17:08:23.381Z,5.00
2022-12-27T17:11:24.274Z,4.90
2022-12-27T17:13:57.073Z,5.10
2022-12-27T17:16:27.986Z,5.40
2022-12-27T17:18:58.653Z,5.30
2022-12-27T17:21:31.440Z,5.60
2022-12-27T17:24:01.076Z,4.60
2022-12-27T17:27:04.256Z,4.70
2022-12-27T17:29:49.475Z,5.20
2022-12-27T17:32:31.004Z,4.40
2022-12-27T17:35:04.972Z,4.70
2022-12-27T17:37:43.157Z,5.10
2022-12-27T17:40:23.568Z,5.50
2022-12-27T17:43:22.061Z,5.40
2022-12-27T17:45:55.920Z,5.70
2022-12-27T17:48:29.255Z,5.60
2022-12-27T17:51:02.037Z,6.20
2022-12-27T17:53:47.127Z,5.60
2022-12-27T17:56:38.240Z,5.70
2022-12-27T17:59:24.565Z,5.30
2022-12-27T18:01:55.857Z,5.60
2022-12-27T18:04:27.493Z,5.60
2022-12-27T18:06:59.444Z,5.50
2022-12-27T18:09:45.625Z,6.30
2022-12-27T18:12:16.649Z,5.90
2022-12-27T18:14:45.332Z,6.20
2022-12-27T18:17:29.007Z,6.30
2022-12-27T18:19:57.729Z,5.90
2022-12-27T18:22:24.649Z,6.40
2022-12-27T18:24:52.021Z,6.10
2022-12-27T18:27:24.843Z,6.10
2022-12-27T18:29:53.015Z,6.20
2022-12-27T18:32:23.658Z,6.10
2022-12-27T18:34:55.792Z,5.80
2022-12-27T18:37:25.334Z,7.10
2022-12-27T18:39:56.141Z,6.40
2022-12-27T18:42:31.220Z,5.60
2022-12-27T18:45:02.072Z,6.40
2022-12-27T18:47:30.251Z,6.60
2022-12-27T18:50:00.184Z,6.80
2022-12-27T18:52:31.852Z,6.80
2022-12-27T18:55:14.286Z,6.40
2022-12-27T18:57:42.036Z,7.00
2022-12-27T19:00:21.715Z,6.60
2022-12-27T19:02:50.253Z,6.40
2022-12-27T19:05:33.110Z,6.00
2022-12-27T19:08:10.925Z,6.10
2022-12-27T19:10:40.392Z,6.20
2022-12-27T19:13:07.781Z,5.70
2022-12-27T19:15:44.985Z,6.30
2022-12-27T19:18:25.176Z,6.10
2022-12-27T19:20:58.340Z,6.10
2022-12-27T19:23:32.460Z,6.00
2022-12-27T19:26:06.214Z,6.30
2022-12-27T19:28:34.795Z,5.70
2022-12-27T19:31:19.810Z,5.90
2022-12-27T19:33:51.639Z,6.80
2022-12-27T19:36:21.069Z,5.90
2022-12-27T19:38:48.367Z,6.90
2022-12-27T19:41:15.833Z,5.80
2022-12-27T19:43:44.848Z,6.10
2022-12-27T19:46:13.494Z,6.40
2022-12-27T19:48:41.053Z,5.90
2022-12-27T19:51:08.925Z,5.90
2022-12-27T19:53:39.010Z,6.10
2022-12-27T19:56:06.419Z,5.90
2022-12-27T19:58:33.595Z,6.80
2022-12-27T20:01:01.293Z,6.30
2022-12-27T20:03:28.796Z,6.80
2022-12-27T20:06:11.280Z,6.60
2022-12-27T20:08:45.608Z,6.50
2022-12-27T20:11:17.406Z,6.70
2022-12-27T20:13:44.354Z,7.30
2022-12-27T20:16:13.752Z,7.30
2022-12-27T20:18:42.332Z,7.20
2022-12-27T20:21:13.327Z,7.20
2022-12-27T20:23:41.540Z,7.30
2022-12-27T20:26:09.488Z,7.70
2022-12-27T20:28:36.653Z,7.30
2022-12-27T20:31:08.794Z,7.80
2022-12-27T20:33:35.912Z,8.80
2022-12-27T20:36:03.352Z,8.30
2022-12-27T20:38:30.585Z,8.20
2022-12-27T20:40:57.678Z,7.90
2022-12-27T20:43:24.764Z,7.80
2022-12-27T20:45:52.220Z,7.50
2022-12-27T20:48:19.432Z,7.50
2022-12-27T20:50:46.326Z,7.40
2022-12-27T20:53:13.394Z,7.70
2022-12-27T20:55:40.544Z,7.40
2022-12-27T20:58:07.556Z,8.10
2022-12-27T21:00:34.883Z,7.40
2022-12-27T21:03:02.003Z,7.40
2022-12-27T21:05:29.403Z,7.40
2022-12-27T21:07:56.762Z,7.10
2022-12-27T21:10:24.135Z,6.70
2022-12-27T21:12:51.168Z,6.00
2022-12-27T21:15:18.411Z,6.60
2022-12-27T21:17:45.649Z,6.60
2022-12-27T21:20:13.999Z,6.80
2022-12-27T21:22:41.211Z,7.30
2022-12-27T21:25:09.861Z,6.50
2022-12-27T21:27:36.861Z,6.60
2022-12-27T21:30:21.795Z,7.10
2022-12-27T21:32:50.152Z,6.50
2022-12-27T21:35:17.518Z,6.30
2022-12-27T21:37:44.877Z,6.10
2022-12-27T21:40:13.932Z,6.50
2022-12-27T21:42:41.963Z,7.00
2022-12-27T21:45:10.587Z,6.10
2022-12-27T21:47:37.787Z,6.00
2022-12-27T21:50:05.054Z,6.10
2022-12-27T21:52:32.396Z,7.30
2022-12-27T21:54:59.360Z,7.10
2022-12-27T21:57:26.472Z,5.90
2022-12-27T21:59:55.795Z,5.90
2022-12-27T22:02:22.866Z,6.20
2022-12-27T22:04:50.145Z,6.90
2022-12-27T22:07:17.059Z,6.20
2022-12-27T22:09:43.985Z,5.90
2022-12-27T22:12:11.227Z,6.50
2022-12-27T22:14:38.191Z,5.90
2022-12-27T22:17:05.312Z,6.30
2022-12-27T22:19:32.568Z,5.80
2022-12-27T22:21:59.456Z,5.90
2022-12-27T22:24:26.547Z,6.50
2022-12-27T22:26:53.610Z,6.10
2022-12-27T22:29:21.830Z,5.80
2022-12-27T22:31:48.913Z,6.00
2022-12-27T22:34:15.864Z,5.60
2022-12-27T22:36:42.919Z,6.10
2022-12-27T22:39:10.098Z,5.70
2022-12-27T22:41:39.274Z,6.80
2022-12-27T22:44:08.998Z,6.30
2022-12-27T22:49:24.292Z,8.80
2022-12-27T22:51:51.531Z,5.50
2022-12-27T22:54:18.462Z,6.40
2022-12-27T22:56:45.667Z,5.90
2022-12-27T22:59:14.539Z,6.10
2022-12-27T23:01:42.456Z,5.70
2022-12-27T23:04:12.891Z,6.40
2022-12-27T23:06:41.171Z,7.00
2022-12-27T23:09:08.789Z,5.80
2022-12-27T23:11:37.854Z,6.50
2022-12-27T23:14:07.501Z,5.80
2022-12-27T23:16:40.031Z,5.60
2022-12-27T23:19:08.159Z,5.80
2022-12-27T23:21:35.204Z,6.00
2022-12-27T23:24:02.214Z,5.90
2022-12-27T23:26:30.132Z,6.10
2022-12-27T23:28:57.602Z,5.60
2022-12-27T23:31:26.343Z,5.90
2022-12-27T23:33:54.683Z,6.30
2022-12-27T23:36:22.451Z,6.20
2022-12-27T23:38:50.161Z,5.70
2022-12-27T23:41:19.136Z,6.10
2022-12-27T23:43:55.749Z,5.90
2022-12-27T23:46:25.248Z,6.60
2022-12-27T23:48:53.502Z,6.50
2022-12-27T23:51:21.464Z,6.80
2022-12-27T23:53:48.647Z,6.60
2022-12-27T23:56:18.536Z,6.50
2022-12-27T23:58:46.658Z,6.50
